Time;durP1;ratioP1;P1;durP2;ratioP2;P2;SDS_P1;SDS_P2;PMS_P1;PMS_P2;Temp;Humidity;BMP_temperature;BMP_pressure;BME280_temperature;BME280_humidity;BME280_pressure;Samples;Min_cycle;Max_cycle;Signal;HPM_P1;HPM_P2
2021/11/29 00:01:23;;;;;;;11.65;8.40;;;28.80;89.00;;;;;;5106242;28;20023;-47
2021/11/29 00:03:51;;;;;;;10.93;6.90;;;28.80;89.00;;;;;;5106196;28;20020;-51
2021/11/29 00:06:18;;;;;;;8.80;6.53;;;28.80;89.00;;;;;;5087965;28;20070;-49
2021/11/29 00:08:46;;;;;;;9.38;7.22;;;28.80;89.00;;;;;;5106340;28;20028;-49
2021/11/29 00:11:20;;;;;;;8.10;6.90;;;28.70;89.00;;;;;;5105849;28;20292;-51
2021/11/29 00:13:47;;;;;;;8.77;6.35;;;28.80;89.00;;;;;;5105679;28;20250;-49
2021/11/29 00:16:14;;;;;;;8.32;6.00;;;28.70;88.90;;;;;;5087584;28;20343;-49
2021/11/29 00:18:41;;;;;;;7.82;5.55;;;28.70;88.90;;;;;;5087166;28;20042;-46
2021/11/29 00:21:11;;;;;;;8.82;5.45;;;28.80;88.80;;;;;;5087470;28;20016;-49
2021/11/29 00:23:38;;;;;;;10.77;5.75;;;28.70;88.70;;;;;;5105024;28;20087;-50
2021/11/29 00:26:05;;;;;;;9.98;5.78;;;28.70;88.70;;;;;;5105164;28;20035;-49
2021/11/29 00:28:31;;;;;;;9.50;5.82;;;28.70;88.70;;;;;;5105831;28;20043;-46
2021/11/29 00:31:02;;;;;;;5.40;4.90;;;28.70;88.60;;;;;;5105490;28;20058;-52
2021/11/29 00:33:28;;;;;;;7.75;5.68;;;28.70;88.60;;;;;;5087340;28;20028;-46
2021/11/29 00:35:55;;;;;;;7.00;5.10;;;28.70;88.40;;;;;;5105381;28;20085;-48
2021/11/29 00:38:21;;;;;;;8.60;5.25;;;28.70;88.40;;;;;;5086857;28;20031;-52
2021/11/29 00:40:48;;;;;;;9.52;5.15;;;28.60;88.30;;;;;;5105189;28;20031;-49
2021/11/29 00:43:15;;;;;;;8.85;5.60;;;28.60;88.20;;;;;;5086933;28;20032;-47
2021/11/29 00:45:42;;;;;;;6.50;4.90;;;28.60;88.00;;;;;;5104508;28;20336;-53
2021/11/29 00:48:08;;;;;;;13.93;5.20;;;28.60;88.00;;;;;;5104934;28;20031;-52
2021/11/29 00:50:37;;;;;;;14.48;5.60;;;28.60;87.90;;;;;;5104868;28;20090;-59
2021/11/29 00:53:06;;;;;;;17.50;5.43;;;28.60;87.70;;;;;;5086825;28;20086;-56
2021/11/29 00:55:34;;;;;;;18.80;5.00;;;28.60;87.80;;;;;;5105131;28;20024;-53
2021/11/29 00:58:01;;;;;;;11.77;5.25;;;28.60;87.90;;;;;;5104788;28;20033;-57
2021/11/29 01:00:28;;;;;;;12.88;5.63;;;28.60;87.90;;;;;;5105381;28;20024;-51
2021/11/29 01:02:56;;;;;;;10.70;5.68;;;28.60;87.90;;;;;;5087481;28;20053;-47
2021/11/29 01:05:23;;;;;;;9.90;4.90;;;28.60;87.90;;;;;;5086696;28;20027;-46
2021/11/29 01:07:50;;;;;;;11.98;4.70;;;28.50;87.60;;;;;;5105068;28;20037;-49
2021/11/29 01:10:18;;;;;;;6.63;4.32;;;28.50;87.80;;;;;;5104937;28;20114;-46
2021/11/29 01:12:51;;;;;;;8.85;4.47;;;28.50;87.70;;;;;;5104479;28;20075;-51
2021/11/29 01:15:21;;;;;;;12.20;4.40;;;28.50;87.70;;;;;;5086790;28;20020;-50
2021/11/29 01:17:49;;;;;;;6.40;3.90;;;28.50;87.70;;;;;;5086692;28;20043;-54
2021/11/29 01:20:16;;;;;;;10.18;4.53;;;28.50;87.60;;;;;;5104775;28;20242;-54
2021/11/29 01:22:44;;;;;;;7.70;4.80;;;28.50;87.60;;;;;;5104905;28;20326;-52
2021/11/29 01:25:12;;;;;;;7.47;5.15;;;28.50;87.50;;;;;;5087089;28;20972;-56
2021/11/29 01:27:40;;;;;;;9.38;5.70;;;28.40;87.40;;;;;;5086894;28;20012;-54
2021/11/29 01:30:09;;;;;;;9.90;6.50;;;28.40;87.40;;;;;;5104326;28;20020;-55
2021/11/29 01:32:36;;;;;;;13.43;6.55;;;28.40;87.50;;;;;;5086210;28;20016;-51
2021/11/29 01:35:03;;;;;;;11.27;6.88;;;28.40;87.60;;;;;;5085847;28;20012;-48
2021/11/29 01:37:30;;;;;;;9.57;6.47;;;28.40;87.60;;;;;;5104251;28;20324;-49
2021/11/29 01:39:57;;;;;;;8.57;6.45;;;28.40;87.50;;;;;;5104272;28;20026;-50
2021/11/29 01:42:28;;;;;;;6.47;5.32;;;28.40;87.40;;;;;;5104307;28;20008;-51
2021/11/29 01:44:56;;;;;;;8.95;5.80;;;28.40;87.20;;;;;;5086055;28;20043;-50
2021/11/29 01:47:23;;;;;;;8.02;5.45;;;28.30;87.10;;;;;;5104262;28;20023;-45
2021/11/29 01:49:50;;;;;;;8.70;5.88;;;28.40;87.10;;;;;;5104307;28;20020;-47
2021/11/29 01:52:17;;;;;;;14.73;5.25;;;28.40;86.80;;;;;;5103898;28;20024;-47
2021/11/29 01:54:44;;;;;;;9.15;4.63;;;28.30;86.80;;;;;;5103841;28;20054;-49
2021/11/29 01:57:11;;;;;;;9.45;4.60;;;28.30;86.60;;;;;;5104924;28;20129;-47
2021/11/29 01:59:38;;;;;;;7.80;4.35;;;28.30;86.30;;;;;;5107980;28;20259;-48
2021/11/29 02:02:05;;;;;;;8.68;4.68;;;28.30;86.30;;;;;;5108471;28;20051;-54
2021/11/29 02:04:32;;;;;;;9.05;4.43;;;28.30;86.20;;;;;;5107918;28;20043;-50
2021/11/29 02:06:59;;;;;;;9.35;4.32;;;28.30;86.00;;;;;;5108167;28;20331;-48
2021/11/29 02:09:25;;;;;;;4.57;3.92;;;28.30;85.70;;;;;;5107944;28;20031;-51
2021/11/29 02:11:54;;;;;;;7.95;4.10;;;28.30;85.40;;;;;;5108312;28;20312;-53
2021/11/29 02:14:21;;;;;;;4.40;3.33;;;28.30;85.40;;;;;;5107648;28;20039;-50
2021/11/29 02:16:48;;;;;;;4.72;3.17;;;28.20;85.10;;;;;;5108000;28;20032;-47
2021/11/29 02:19:16;;;;;;;6.30;3.80;;;28.20;85.00;;;;;;5107803;28;20224;-46
2021/11/29 02:21:43;;;;;;;7.05;3.22;;;28.20;85.00;;;;;;5107807;28;20020;-48
2021/11/29 02:24:10;;;;;;;5.55;3.25;;;28.20;85.00;;;;;;5089445;28;20040;-52
2021/11/29 02:26:38;;;;;;;5.05;3.47;;;28.20;84.80;;;;;;5089674;28;20316;-48
2021/11/29 02:29:11;;;;;;;6.05;3.70;;;28.20;84.40;;;;;;5089303;28;20024;-49
2021/11/29 02:31:43;;;;;;;8.98;3.08;;;28.20;84.40;;;;;;5107524;28;20031;-51
2021/11/29 02:34:31;;;;;;;3.17;2.83;;;28.20;84.30;;;;;;5107727;28;20050;-46
2021/11/29 02:37:00;;;;;;;4.22;3.28;;;28.10;84.10;;;;;;5107070;28;20054;-51
2021/11/29 02:39:30;;;;;;;6.40;3.03;;;28.10;84.00;;;;;;5089555;28;20055;-51
2021/11/29 02:42:01;;;;;;;6.43;3.20;;;28.20;84.00;;;;;;5107525;28;20024;-47
2021/11/29 02:44:27;;;;;;;4.68;3.10;;;28.10;83.70;;;;;;5107105;28;20016;-52
2021/11/29 02:46:54;;;;;;;6.00;2.90;;;28.20;83.50;;;;;;5107431;28;20035;-55
2021/11/29 02:49:21;;;;;;;10.60;3.05;;;28.10;83.50;;;;;;5074692;28;20055;-46
2021/11/29 02:51:53;;;;;;;5.72;3.20;;;28.10;83.40;;;;;;5107293;28;20024;-48
2021/11/29 02:54:26;;;;;;;7.40;3.42;;;28.10;83.40;;;;;;5083275;28;20024;-49
2021/11/29 02:56:57;;;;;;;11.00;3.30;;;28.10;83.20;;;;;;5073296;28;20036;-50
2021/11/29 02:59:29;;;;;;;3.58;2.80;;;28.10;83.00;;;;;;5052886;28;20017;-49
2021/11/29 03:02:02;;;;;;;8.88;2.80;;;28.10;82.90;;;;;;5066650;28;20047;-47
2021/11/29 03:04:33;;;;;;;7.63;3.00;;;28.10;83.30;;;;;;5066554;28;20017;-47
2021/11/29 03:07:01;;;;;;;4.95;2.80;;;28.10;82.80;;;;;;5077533;28;20032;-52
2021/11/29 03:09:29;;;;;;;6.45;2.90;;;28.10;82.60;;;;;;5071107;28;20087;-47
2021/11/29 03:11:58;;;;;;;5.45;2.90;;;28.10;82.60;;;;;;5079445;28;20063;-50
2021/11/29 03:14:26;;;;;;;6.00;2.83;;;28.10;82.50;;;;;;5068426;28;20016;-47
2021/11/29 03:16:54;;;;;;;4.63;2.40;;;28.10;82.60;;;;;;5086103;28;20101;-50
2021/11/29 03:19:23;;;;;;;5.30;3.03;;;28.10;82.40;;;;;;5086481;28;20321;-47
2021/11/29 03:21:49;;;;;;;7.57;3.50;;;28.10;82.30;;;;;;5068480;28;20064;-51
2021/11/29 03:24:16;;;;;;;5.57;4.40;;;28.10;82.20;;;;;;5081381;28;20017;-49
2021/11/29 03:26:43;;;;;;;7.80;5.05;;;28.00;82.00;;;;;;5077597;28;20021;-52
2021/11/29 03:29:16;;;;;;;6.07;4.50;;;28.10;82.20;;;;;;5086266;28;20455;-48
2021/11/29 03:31:44;;;;;;;7.00;4.15;;;28.00;82.10;;;;;;5088585;28;20028;-46
2021/11/29 03:34:14;;;;;;;6.82;4.60;;;28.00;82.00;;;;;;5075323;28;20092;-52
2021/11/29 03:36:44;;;;;;;6.32;4.28;;;28.00;82.00;;;;;;5073300;28;20037;-49
2021/11/29 03:39:17;;;;;;;6.35;4.05;;;28.00;82.00;;;;;;5065659;28;20202;-47
2021/11/29 03:41:45;;;;;;;5.88;4.15;;;28.00;82.10;;;;;;5064660;28;20059;-47
2021/11/29 03:44:13;;;;;;;4.30;3.78;;;28.00;82.10;;;;;;5065710;28;20013;-50
2021/11/29 03:46:41;;;;;;;6.07;3.85;;;28.00;82.20;;;;;;5065659;28;20290;-48
2021/11/29 03:49:07;;;;;;;6.75;3.63;;;28.00;82.10;;;;;;5065419;28;20096;-46
2021/11/29 03:51:34;;;;;;;10.27;4.20;;;28.00;82.10;;;;;;5065887;28;20028;-48
2021/11/29 03:54:00;;;;;;;6.50;4.63;;;28.00;82.00;;;;;;5065216;28;20013;-48
2021/11/29 03:56:27;;;;;;;10.45;6.18;;;28.00;82.10;;;;;;5065390;28;20029;-52
2021/11/29 03:58:54;;;;;;;7.75;5.35;;;27.90;81.90;;;;;;5065287;28;20266;-48
2021/11/29 04:01:21;;;;;;;6.63;5.13;;;27.90;82.00;;;;;;5065690;28;20096;-44
2021/11/29 04:03:47;;;;;;;7.07;4.80;;;27.90;82.10;;;;;;5065311;28;20298;-47
2021/11/29 04:06:14;;;;;;;8.80;5.72;;;27.90;82.30;;;;;;5087408;28;20032;-50
2021/11/29 04:08:41;;;;;;;9.65;6.70;;;27.90;82.50;;;;;;5077068;28;20024;-48
2021/11/29 04:11:07;;;;;;;10.07;7.47;;;27.90;82.70;;;;;;5065206;28;20021;-49
2021/11/29 04:13:35;;;;;;;9.82;6.68;;;27.90;83.00;;;;;;5071352;28;20051;-50
2021/11/29 04:16:01;;;;;;;7.00;5.43;;;27.90;83.00;;;;;;5085007;28;20087;-46
2021/11/29 04:18:28;;;;;;;8.43;5.88;;;27.80;83.10;;;;;;5067098;28;20020;-47
2021/11/29 04:20:56;;;;;;;8.27;5.65;;;27.80;83.30;;;;;;5084429;28;20193;-49
2021/11/29 04:23:23;;;;;;;7.95;5.20;;;27.80;83.50;;;;;;5084569;28;20028;-47
2021/11/29 04:26:01;;;;;;;12.82;4.55;;;27.80;83.60;;;;;;5084859;28;20024;-46
2021/11/29 04:28:28;;;;;;;8.10;5.25;;;27.80;83.70;;;;;;5084468;28;20066;-49
2021/11/29 04:30:55;;;;;;;8.23;5.55;;;27.70;83.70;;;;;;5080981;28;20025;-47
2021/11/29 04:33:22;;;;;;;6.47;5.40;;;27.70;83.60;;;;;;5098484;28;20031;-49
2021/11/29 04:35:49;;;;;;;7.13;5.15;;;27.70;83.70;;;;;;5104245;28;20068;-50
2021/11/29 04:38:16;;;;;;;8.40;4.35;;;27.70;83.70;;;;;;5104421;28;20087;-50
2021/11/29 04:40:42;;;;;;;6.80;5.03;;;27.70;83.70;;;;;;5105085;28;20315;-48
2021/11/29 04:43:09;;;;;;;7.30;4.55;;;27.70;83.70;;;;;;5104888;28;20075;-52
2021/11/29 04:45:36;;;;;;;5.82;4.40;;;27.70;83.90;;;;;;5104798;28;20028;-48
2021/11/29 04:48:03;;;;;;;8.45;4.45;;;27.70;84.30;;;;;;5101675;28;20032;-51
2021/11/29 04:50:30;;;;;;;6.18;4.93;;;27.70;84.20;;;;;;5084419;28;20032;-48
2021/11/29 04:52:57;;;;;;;7.22;5.07;;;27.70;84.20;;;;;;5084537;28;20028;-46
2021/11/29 04:55:23;;;;;;;8.82;4.70;;;27.60;84.30;;;;;;5084395;28;20020;-52
2021/11/29 04:57:50;;;;;;;7.30;4.93;;;27.60;84.50;;;;;;5084358;28;20017;-51
2021/11/29 05:00:22;;;;;;;6.07;4.80;;;27.70;84.60;;;;;;5066468;28;20025;-50
2021/11/29 05:02:49;;;;;;;7.07;5.10;;;27.60;84.70;;;;;;5084101;28;20009;-49
2021/11/29 05:05:16;;;;;;;8.68;4.95;;;27.60;84.80;;;;;;5084079;28;20024;-49
2021/11/29 05:07:43;;;;;;;9.85;5.00;;;27.60;85.00;;;;;;5084211;28;20297;-51
2021/11/29 05:10:10;;;;;;;8.20;4.60;;;27.60;85.30;;;;;;5083966;28;20358;-50
2021/11/29 05:12:37;;;;;;;6.38;4.55;;;27.60;85.40;;;;;;5084111;28;20017;-47
2021/11/29 05:15:05;;;;;;;8.95;4.70;;;27.60;85.40;;;;;;5084086;28;20016;-51
2021/11/29 05:17:32;;;;;;;5.38;4.40;;;27.60;85.60;;;;;;5065989;28;20270;-48
2021/11/29 05:19:59;;;;;;;7.40;4.68;;;27.50;85.40;;;;;;5084117;28;20044;-48
2021/11/29 05:22:25;;;;;;;5.13;4.20;;;27.60;85.60;;;;;;5083982;28;20213;-54
2021/11/29 05:24:52;;;;;;;4.38;4.00;;;27.50;85.60;;;;;;5083586;28;20013;-48
2021/11/29 05:27:18;;;;;;;9.27;3.92;;;27.50;85.80;;;;;;5083910;28;20016;-48
2021/11/29 05:29:45;;;;;;;7.18;4.07;;;27.50;85.90;;;;;;5084011;28;20024;-54
2021/11/29 05:32:12;;;;;;;6.88;4.38;;;27.50;85.80;;;;;;5084134;28;20040;-51
2021/11/29 05:34:38;;;;;;;6.38;4.00;;;27.50;85.70;;;;;;5083842;28;20012;-49
2021/11/29 05:37:05;;;;;;;5.93;4.00;;;27.50;85.70;;;;;;5083763;28;20240;-52
2021/11/29 05:39:32;;;;;;;6.53;3.75;;;27.50;85.50;;;;;;5085551;28;20021;-49
2021/11/29 05:41:58;;;;;;;4.65;4.03;;;27.40;85.30;;;;;;5084466;28;20032;-49
2021/11/29 05:44:25;;;;;;;6.55;3.60;;;27.40;84.90;;;;;;5084167;28;20023;-50
2021/11/29 05:46:51;;;;;;;4.05;3.13;;;27.40;85.10;;;;;;5083497;28;20029;-48
2021/11/29 05:49:20;;;;;;;4.90;3.30;;;27.40;84.20;;;;;;5083832;28;20028;-48
2021/11/29 05:51:47;;;;;;;5.85;3.20;;;27.40;83.60;;;;;;5083963;28;20021;-55
2021/11/29 05:54:14;;;;;;;5.78;3.22;;;27.40;83.30;;;;;;5083656;28;20035;-51
2021/11/29 05:56:40;;;;;;;3.58;3.00;;;27.40;83.10;;;;;;5083891;28;20048;-54
2021/11/29 05:59:07;;;;;;;4.68;3.20;;;27.30;82.60;;;;;;5083651;28;20044;-51
2021/11/29 06:01:34;;;;;;;8.15;3.03;;;27.30;82.30;;;;;;5083522;28;20077;-52
2021/11/29 06:04:01;;;;;;;5.53;2.88;;;27.30;82.20;;;;;;5099654;28;20061;-53
2021/11/29 06:06:27;;;;;;;5.97;2.90;;;27.30;82.20;;;;;;5104295;28;20284;-50
2021/11/29 06:08:54;;;;;;;6.15;2.47;;;27.30;82.10;;;;;;5103621;28;20035;-51
2021/11/29 06:11:20;;;;;;;4.35;2.50;;;27.30;82.10;;;;;;5104160;28;20026;-50
2021/11/29 06:13:47;;;;;;;4.40;3.00;;;27.30;82.20;;;;;;5103741;28;20026;-46
2021/11/29 06:16:14;;;;;;;7.28;2.80;;;27.30;82.20;;;;;;5103754;28;20028;-50
2021/11/29 06:18:40;;;;;;;5.20;2.20;;;27.30;82.10;;;;;;5103740;28;20024;-52
2021/11/29 06:21:07;;;;;;;4.50;2.58;;;27.20;81.90;;;;;;5104082;28;20042;-51
2021/11/29 06:23:34;;;;;;;9.45;2.88;;;27.20;81.90;;;;;;5103508;28;20012;-50
2021/11/29 06:26:00;;;;;;;7.10;2.90;;;27.20;82.20;;;;;;5103815;28;20040;-57
2021/11/29 06:28:28;;;;;;;5.32;2.90;;;27.20;82.00;;;;;;5103657;28;20069;-52
2021/11/29 06:30:55;;;;;;;5.70;2.67;;;27.20;82.00;;;;;;5103761;28;20055;-52
2021/11/29 06:33:22;;;;;;;4.40;2.72;;;27.20;82.30;;;;;;5103531;28;20016;-51
2021/11/29 06:35:49;;;;;;;4.07;2.70;;;27.20;82.40;;;;;;5103380;28;20399;-45
2021/11/29 06:38:17;;;;;;;5.47;2.60;;;27.20;82.50;;;;;;5085782;28;20020;-59
2021/11/29 06:40:49;;;;;;;5.10;2.90;;;27.20;82.30;;;;;;5103603;28;20036;-53
2021/11/29 06:43:18;;;;;;;3.72;2.58;;;27.20;82.30;;;;;;5104042;28;20020;-54
2021/11/29 06:45:44;;;;;;;6.22;2.78;;;27.10;82.30;;;;;;5107589;28;20162;-50
2021/11/29 06:48:11;;;;;;;5.43;2.65;;;27.10;82.40;;;;;;5107140;28;20020;-53
2021/11/29 06:50:38;;;;;;;6.95;3.15;;;27.10;82.40;;;;;;5107080;28;20028;-51
2021/11/29 06:53:05;;;;;;;5.60;3.10;;;27.10;82.70;;;;;;5106835;28;20024;-49
2021/11/29 06:55:32;;;;;;;4.32;2.90;;;27.10;82.80;;;;;;5106971;28;20032;-49
2021/11/29 06:58:03;;;;;;;4.88;3.40;;;27.10;83.00;;;;;;5106925;28;20327;-50
2021/11/29 07:00:32;;;;;;;6.10;3.35;;;27.10;83.30;;;;;;5106755;28;20024;-49
2021/11/29 07:02:59;;;;;;;6.72;3.08;;;27.10;83.40;;;;;;5107027;28;20182;-52
2021/11/29 07:05:27;;;;;;;6.28;3.50;;;27.10;83.60;;;;;;5106949;28;20024;-53
2021/11/29 07:07:55;;;;;;;4.90;3.38;;;27.10;83.70;;;;;;5106470;28;20066;-50
2021/11/29 07:10:26;;;;;;;5.68;3.50;;;27.10;83.70;;;;;;5106729;28;20035;-49
2021/11/29 07:12:54;;;;;;;4.70;2.93;;;27.10;83.80;;;;;;5106615;28;20023;-55
2021/11/29 07:15:24;;;;;;;6.43;3.25;;;27.00;83.60;;;;;;5106463;28;20044;-53
2021/11/29 07:17:51;;;;;;;4.10;3.10;;;27.10;83.50;;;;;;5106508;28;20024;-48
2021/11/29 07:20:18;;;;;;;4.90;3.10;;;27.00;83.50;;;;;;5106412;28;20044;-49
2021/11/29 07:22:45;;;;;;;3.78;2.75;;;27.10;83.70;;;;;;5106369;28;20016;-51
2021/11/29 07:25:13;;;;;;;3.40;3.10;;;27.10;83.40;;;;;;5106396;28;20111;-47
2021/11/29 07:27:39;;;;;;;4.20;2.78;;;27.00;83.00;;;;;;5106440;28;20178;-52
2021/11/29 07:30:09;;;;;;;8.95;3.38;;;27.10;83.10;;;;;;5106184;28;20219;-49
2021/11/29 07:32:36;;;;;;;3.80;2.83;;;27.00;82.60;;;;;;5106287;28;20070;-47
2021/11/29 07:35:04;;;;;;;5.93;2.53;;;27.00;82.70;;;;;;5106125;28;20312;-52
2021/11/29 07:37:30;;;;;;;5.20;3.30;;;27.00;82.60;;;;;;5106001;28;20031;-50
2021/11/29 07:39:57;;;;;;;7.95;3.17;;;27.00;82.90;;;;;;5106063;28;20035;-52
2021/11/29 07:42:24;;;;;;;5.32;3.08;;;27.00;82.90;;;;;;5106056;28;20016;-50
2021/11/29 07:44:50;;;;;;;6.90;2.72;;;27.00;83.00;;;;;;5105986;28;20016;-47
2021/11/29 07:47:17;;;;;;;4.90;3.00;;;26.90;82.40;;;;;;5106132;28;20069;-47
2021/11/29 07:49:43;;;;;;;3.63;2.63;;;26.90;82.40;;;;;;5105974;28;20087;-52
2021/11/29 07:52:13;;;;;;;5.50;2.58;;;26.90;82.20;;;;;;5106530;28;20299;-51
2021/11/29 07:54:43;;;;;;;4.55;3.03;;;26.90;82.50;;;;;;5105923;28;20024;-48
2021/11/29 07:57:10;;;;;;;4.97;2.60;;;26.90;82.00;;;;;;5106119;28;20050;-50
2021/11/29 07:59:38;;;;;;;5.90;2.28;;;26.90;81.40;;;;;;5105743;28;20057;-50
2021/11/29 08:02:04;;;;;;;5.05;2.55;;;26.90;81.50;;;;;;5106118;28;20051;-50
2021/11/29 08:04:31;;;;;;;4.70;2.17;;;26.90;81.40;;;;;;5105789;28;20019;-51
2021/11/29 08:06:58;;;;;;;4.82;2.50;;;26.90;81.20;;;;;;5106042;28;20035;-54
2021/11/29 08:09:24;;;;;;;5.03;2.30;;;26.90;81.10;;;;;;5105751;28;20326;-48
2021/11/29 08:11:51;;;;;;;4.28;2.17;;;26.90;81.00;;;;;;5105928;28;20035;-50
2021/11/29 08:14:17;;;;;;;5.35;2.08;;;26.90;81.00;;;;;;5105276;28;20016;-56
2021/11/29 08:16:44;;;;;;;3.97;2.30;;;26.90;80.80;;;;;;5105539;28;20027;-51
2021/11/29 08:19:10;;;;;;;3.08;2.33;;;26.90;80.70;;;;;;5105757;28;20012;-52
2021/11/29 08:21:37;;;;;;;4.03;2.53;;;26.90;80.90;;;;;;5105707;28;20361;-54
2021/11/29 08:24:04;;;;;;;6.25;2.55;;;26.90;81.20;;;;;;5105367;28;20079;-50
2021/11/29 08:26:31;;;;;;;5.68;2.50;;;26.90;81.80;;;;;;5105361;28;20032;-52
2021/11/29 08:28:58;;;;;;;6.57;3.03;;;26.90;81.40;;;;;;5104928;28;20038;-47
2021/11/29 08:31:25;;;;;;;4.05;2.55;;;26.80;81.40;;;;;;5105606;28;20308;-50
2021/11/29 08:33:51;;;;;;;5.13;2.97;;;26.90;81.70;;;;;;5105089;28;20040;-47
2021/11/29 08:36:21;;;;;;;5.60;2.80;;;26.90;82.40;;;;;;5104624;28;20059;-49
2021/11/29 08:38:47;;;;;;;3.92;2.70;;;26.90;81.90;;;;;;5104843;28;20016;-54
2021/11/29 08:41:16;;;;;;;5.10;3.13;;;26.90;81.90;;;;;;5105325;28;20024;-54
2021/11/29 08:43:43;;;;;;;5.25;2.63;;;26.90;82.00;;;;;;5104995;28;20023;-47
2021/11/29 08:46:10;;;;;;;4.18;2.88;;;26.90;82.10;;;;;;5105266;28;20032;-47
2021/11/29 08:48:37;;;;;;;7.05;3.03;;;26.90;82.10;;;;;;5105466;28;20251;-48
2021/11/29 08:51:04;;;;;;;4.72;2.95;;;26.90;82.40;;;;;;5104876;28;20052;-47
2021/11/29 08:53:31;;;;;;;7.68;2.75;;;26.80;82.80;;;;;;5104899;28;20065;-52
2021/11/29 08:55:58;;;;;;;5.32;3.13;;;26.80;82.60;;;;;;5104779;28;20039;-51
2021/11/29 08:58:25;;;;;;;4.72;2.90;;;26.90;82.80;;;;;;5103843;28;20016;-49
2021/11/29 09:00:54;;;;;;;6.90;3.15;;;26.80;83.10;;;;;;5104526;28;20083;-53
2021/11/29 09:03:21;;;;;;;6.75;3.03;;;26.80;82.90;;;;;;5104543;28;20016;-46
2021/11/29 09:05:48;;;;;;;4.50;3.00;;;26.80;82.80;;;;;;5104046;28;20208;-51
2021/11/29 09:08:16;;;;;;;3.97;2.60;;;26.80;82.60;;;;;;5104469;28;20020;-50
2021/11/29 09:10:45;;;;;;;6.28;2.50;;;26.80;82.60;;;;;;5104582;28;20028;-55
2021/11/29 09:13:12;;;;;;;3.15;2.60;;;26.80;82.40;;;;;;5104261;28;20024;-54
2021/11/29 09:15:41;;;;;;;4.20;2.78;;;26.80;82.50;;;;;;5104425;28;20047;-54
2021/11/29 09:18:09;;;;;;;5.80;2.95;;;26.90;82.50;;;;;;5104163;28;20050;-54
2021/11/29 09:20:35;;;;;;;4.25;2.92;;;26.80;82.40;;;;;;5104150;28;20027;-48
2021/11/29 09:23:03;;;;;;;5.32;2.70;;;26.90;82.50;;;;;;5104154;28;20016;-53
2021/11/29 09:25:30;;;;;;;3.42;2.78;;;26.90;82.40;;;;;;5104081;28;20090;-55
2021/11/29 09:27:57;;;;;;;7.53;2.90;;;26.90;82.60;;;;;;5103856;28;20020;-53
2021/11/29 09:30:23;;;;;;;3.83;2.80;;;26.90;82.70;;;;;;5104000;28;20028;-51
2021/11/29 09:32:50;;;;;;;4.97;2.97;;;26.80;82.70;;;;;;5104117;28;20022;-50
2021/11/29 09:35:19;;;;;;;3.10;2.70;;;26.80;82.70;;;;;;5104226;28;20020;-49
2021/11/29 09:37:47;;;;;;;5.10;2.97;;;26.80;82.90;;;;;;5104790;28;20056;-46
2021/11/29 09:40:25;;;;;;;6.75;3.25;;;26.80;83.10;;;;;;5104989;28;20028;-53
2021/11/29 09:42:53;;;;;;;4.45;2.83;;;26.80;82.90;;;;;;5104170;28;20024;-49
2021/11/29 09:45:21;;;;;;;4.25;2.67;;;26.80;82.90;;;;;;5104001;28;20028;-48
2021/11/29 09:47:48;;;;;;;3.42;2.70;;;26.80;82.90;;;;;;5103711;28;20020;-50
2021/11/29 09:50:17;;;;;;;2.72;2.42;;;26.80;82.70;;;;;;5104067;28;20308;-47
2021/11/29 09:52:44;;;;;;;5.13;2.45;;;26.80;82.70;;;;;;5103896;28;20061;-51
2021/11/29 09:55:15;;;;;;;8.50;2.63;;;26.80;83.10;;;;;;5103766;28;20027;-50
2021/11/29 09:58:04;;;;;;;3.33;2.50;;;26.80;82.20;;;;;;5103902;28;20027;-49
2021/11/29 10:00:37;;;;;;;4.68;2.42;;;26.80;82.10;;;;;;5103865;28;20059;-46
2021/11/29 10:03:04;;;;;;;4.55;2.70;;;26.90;82.60;;;;;;5103871;28;20312;-48
2021/11/29 10:05:33;;;;;;;5.15;2.60;;;26.80;82.50;;;;;;5104275;28;20035;-49
2021/11/29 10:07:59;;;;;;;9.88;3.28;;;26.80;82.80;;;;;;5103814;28;20015;-49
2021/11/29 10:10:28;;;;;;;3.78;2.70;;;26.90;82.70;;;;;;5104361;28;20031;-50
2021/11/29 10:13:02;;;;;;;6.13;2.85;;;26.80;82.50;;;;;;5103943;28;20039;-46
2021/11/29 10:15:40;;;;;;;6.85;2.80;;;26.80;82.60;;;;;;5103815;28;20043;-50
2021/11/29 10:18:15;;;;;;;3.78;2.30;;;26.80;82.50;;;;;;5104132;28;20122;-52
2021/11/29 10:21:09;;;;;;;4.78;2.38;;;26.80;82.20;;;;;;5107923;28;20070;-47
2021/11/29 10:23:39;;;;;;;9.77;2.70;;;26.80;81.90;;;;;;5104583;28;20365;-48
2021/11/29 10:26:22;;;;;;;5.40;2.55;;;26.90;81.70;;;;;;5107611;28;20058;-48
2021/11/29 10:28:56;;;;;;;4.30;2.33;;;26.80;81.20;;;;;;5107560;28;20055;-50
2021/11/29 10:31:37;;;;;;;4.70;2.55;;;26.80;81.20;;;;;;5107341;28;20020;-49
2021/11/29 10:34:12;;;;;;;6.40;2.60;;;26.80;81.10;;;;;;5107637;28;20048;-50
2021/11/29 10:36:45;;;;;;;3.75;2.30;;;26.90;81.00;;;;;;5107082;28;20047;-47
2021/11/29 10:39:19;;;;;;;3.80;2.30;;;26.90;81.00;;;;;;5107343;28;20020;-47
2021/11/29 10:41:48;;;;;;;3.40;2.03;;;26.80;80.90;;;;;;5107436;28;20077;-46
2021/11/29 10:44:24;;;;;;;4.82;2.78;;;26.90;81.00;;;;;;5107097;28;20019;-46
2021/11/29 10:46:53;;;;;;;6.32;2.65;;;26.90;81.10;;;;;;5107970;28;20048;-51
2021/11/29 10:49:23;;;;;;;8.23;3.10;;;26.80;81.10;;;;;;5107073;28;20087;-52
2021/11/29 10:51:52;;;;;;;4.68;3.15;;;26.80;81.20;;;;;;5107371;28;20091;-49
2021/11/29 10:54:22;;;;;;;6.40;3.10;;;26.90;81.30;;;;;;5106807;28;20020;-49
2021/11/29 10:56:50;;;;;;;6.20;3.33;;;26.80;81.30;;;;;;5107559;28;20181;-48
2021/11/29 10:59:21;;;;;;;7.00;3.75;;;26.90;81.50;;;;;;5106858;28;20038;-51
2021/11/29 11:01:54;;;;;;;7.65;4.05;;;26.90;81.90;;;;;;5107187;28;20032;-52
2021/11/29 11:04:26;;;;;;;6.22;3.55;;;26.80;81.70;;;;;;5106704;28;20016;-46
2021/11/29 11:07:00;;;;;;;8.90;3.90;;;26.80;81.80;;;;;;5107003;28;20087;-54
2021/11/29 11:09:33;;;;;;;6.30;3.78;;;26.80;81.70;;;;;;5106509;28;20095;-48
2021/11/29 11:12:04;;;;;;;5.88;3.10;;;26.80;81.70;;;;;;5106918;28;20027;-49
2021/11/29 11:14:39;;;;;;;6.15;3.40;;;26.80;81.80;;;;;;5106496;28;20027;-52
2021/11/29 11:17:10;;;;;;;6.88;3.45;;;26.80;82.00;;;;;;5106880;28;20036;-54
2021/11/29 11:20:00;;;;;;;12.80;4.20;;;26.80;82.10;;;;;;5106372;28;20039;-56
2021/11/29 11:22:32;;;;;;;8.95;3.78;;;26.80;82.40;;;;;;5106304;28;20031;-53
2021/11/29 11:25:08;;;;;;;11.15;4.47;;;26.80;82.80;;;;;;5106356;28;20054;-47
2021/11/29 11:27:38;;;;;;;9.10;4.10;;;26.80;83.00;;;;;;5106222;28;20016;-48
2021/11/29 11:30:12;;;;;;;7.75;3.78;;;26.80;83.20;;;;;;5105705;28;20042;-48
2021/11/29 11:32:38;;;;;;;8.55;4.95;;;26.80;83.10;;;;;;5106032;28;20023;-48
2021/11/29 11:35:17;;;;;;;9.18;4.97;;;26.80;83.20;;;;;;5105842;28;20023;-52
2021/11/29 11:37:49;;;;;;;9.05;5.68;;;26.80;83.60;;;;;;5106095;28;20077;-46
2021/11/29 11:40:19;;;;;;;8.10;5.13;;;26.80;83.90;;;;;;5106296;28;20031;-51
2021/11/29 11:42:47;;;;;;;13.10;5.63;;;26.90;84.10;;;;;;5105874;28;20020;-47
2021/11/29 11:45:23;;;;;;;8.55;4.70;;;26.90;84.20;;;;;;5104545;28;20024;-50
2021/11/29 11:47:51;;;;;;;7.20;4.85;;;26.90;84.30;;;;;;5105727;28;20308;-47
2021/11/29 11:50:23;;;;;;;8.57;4.85;;;26.90;84.30;;;;;;5098075;28;20031;-54
2021/11/29 11:52:53;;;;;;;8.75;5.47;;;26.90;84.60;;;;;;5099469;28;20083;-54
2021/11/29 11:55:24;;;;;;;12.35;6.85;;;26.90;84.60;;;;;;5093608;28;20035;-49
2021/11/29 11:57:53;;;;;;;9.23;6.30;;;26.90;84.50;;;;;;5067297;28;20024;-51
2021/11/29 12:00:26;;;;;;;7.18;6.18;;;26.90;84.40;;;;;;5105831;28;20296;-55
2021/11/29 12:03:10;;;;;;;13.18;8.20;;;27.00;84.50;;;;;;5105698;28;20199;-50
2021/11/29 12:05:54;;;;;;;8.60;6.13;;;26.90;84.60;;;;;;5105785;28;20091;-50
2021/11/29 12:08:32;;;;;;;8.25;6.20;;;27.00;84.80;;;;;;5105528;28;20016;-49
2021/11/29 12:11:00;;;;;;;12.07;8.70;;;27.00;85.10;;;;;;5105276;28;20057;-48
2021/11/29 12:13:27;;;;;;;12.73;6.78;;;27.00;85.00;;;;;;5105420;28;20328;-49
2021/11/29 12:15:56;;;;;;;9.38;5.47;;;27.00;85.20;;;;;;5091818;28;20032;-54
2021/11/29 12:18:41;;;;;;;14.02;5.90;;;27.00;85.20;;;;;;5094779;28;20036;-49
2021/11/29 12:21:23;;;;;;;9.50;5.63;;;27.10;84.90;;;;;;5090615;28;20024;-51
2021/11/29 12:24:11;;;;;;;14.10;4.85;;;27.10;85.00;;;;;;5102333;28;20019;-49
2021/11/29 12:26:47;;;;;;;6.32;4.47;;;27.10;85.00;;;;;;5103960;28;20028;-44
2021/11/29 12:29:23;;;;;;;9.45;5.00;;;27.10;85.10;;;;;;5086278;28;20019;-46
2021/11/29 12:32:05;;;;;;;11.90;4.97;;;27.10;85.40;;;;;;5104291;28;20020;-46
2021/11/29 12:34:48;;;;;;;6.68;4.85;;;27.20;85.70;;;;;;5091303;28;20027;-51
2021/11/29 12:37:16;;;;;;;9.32;5.00;;;27.20;85.50;;;;;;5086739;28;20114;-50
2021/11/29 12:39:42;;;;;;;11.30;4.75;;;27.20;85.90;;;;;;5105210;28;20032;-53
2021/11/29 12:42:25;;;;;;;8.88;4.57;;;27.20;86.00;;;;;;5104659;28;20020;-50
2021/11/29 12:45:17;;;;;;;9.93;4.63;;;27.20;86.30;;;;;;5104463;28;20050;-50
2021/11/29 12:47:46;;;;;;;8.32;4.60;;;27.30;86.80;;;;;;5104649;28;20024;-53
2021/11/29 12:50:43;;;;;;;5.88;4.30;;;27.30;86.50;;;;;;5085575;28;20033;-50
2021/11/29 12:53:21;;;;;;;5.95;4.15;;;27.40;86.70;;;;;;5096837;28;20227;-54
2021/11/29 12:55:51;;;;;;;6.18;4.07;;;27.30;86.70;;;;;;5095815;28;20035;-54